createdAt,value
2019-05-15T00:04:09.985Z,4.90
2019-05-15T00:18:52.553Z,5.00
2019-05-15T00:27:49.178Z,5.10
2019-05-15T00:30:29.031Z,5.10
2019-05-15T00:33:19.383Z,5.10
2019-05-15T00:50:39.400Z,5.00
2019-05-15T00:57:15.290Z,5.00
2019-05-15T01:03:31.371Z,5.00
2019-05-15T01:06:39.046Z,4.90
2019-05-15T01:09:29.241Z,4.90
2019-05-15T01:12:38.058Z,4.80
2019-05-15T01:15:29.056Z,4.80
2019-05-15T01:24:05.648Z,4.70
2019-05-15T01:26:53.961Z,4.70
2019-05-15T01:29:43.714Z,4.70
2019-05-15T01:38:38.993Z,4.80
2019-05-15T01:41:28.610Z,4.70
2019-05-15T01:47:24.289Z,4.60
2019-05-15T01:53:20.162Z,4.50
2019-05-15T02:02:18.557Z,4.40
2019-05-15T02:17:21.510Z,4.40
2019-05-15T02:23:38.760Z,4.40
2019-05-15T02:26:28.258Z,4.40
2019-05-15T02:29:22.565Z,4.30
2019-05-15T02:32:10.123Z,4.30
2019-05-15T02:37:51.857Z,4.40
2019-05-15T02:40:40.974Z,4.40
2019-05-15T02:46:24.648Z,4.30
2019-05-15T02:58:39.920Z,4.50
2019-05-15T03:01:49.115Z,4.40
2019-05-15T03:07:30.604Z,4.40
2019-05-15T03:10:20.003Z,4.30
2019-05-15T03:16:02.790Z,4.30
2019-05-15T03:31:22.532Z,4.40
2019-05-15T03:37:03.316Z,4.40
2019-05-15T03:45:50.245Z,4.40
2019-05-15T03:48:40.300Z,4.40
2019-05-15T04:03:23.968Z,4.50
2019-05-15T04:09:19.677Z,4.50
2019-05-15T04:14:39.509Z,4.60
2019-05-15T04:17:20.845Z,4.60
2019-05-15T04:20:02.296Z,4.60
2019-05-15T04:22:43.035Z,4.60
2019-05-15T04:25:24.036Z,4.60
2019-05-15T04:28:05.516Z,4.60
2019-05-15T04:30:49.295Z,4.60
2019-05-15T04:33:29.510Z,4.70
2019-05-15T04:39:23.409Z,4.70
2019-05-15T04:42:04.753Z,4.60
2019-05-15T04:44:49.326Z,4.60
2019-05-15T04:47:30.162Z,4.60
2019-05-15T04:50:11.313Z,4.60
2019-05-15T04:52:52.238Z,4.60
2019-05-15T04:55:32.954Z,4.60
2019-05-15T04:58:13.755Z,4.70
2019-05-15T05:00:54.849Z,4.70
2019-05-15T05:03:38.968Z,4.60
2019-05-15T05:06:19.055Z,4.70
2019-05-15T05:08:59.898Z,4.60
2019-05-15T05:11:40.881Z,4.70
2019-05-15T05:14:22.323Z,4.70
2019-05-15T05:17:03.841Z,4.80
2019-05-15T05:19:44.888Z,4.80
2019-05-15T05:22:28.185Z,4.80
2019-05-15T05:25:09.138Z,4.70
2019-05-15T05:27:50.221Z,4.80
2019-05-15T05:30:30.778Z,4.70
2019-05-15T05:33:11.358Z,4.70
2019-05-15T05:35:51.814Z,4.70
2019-05-15T05:38:31.362Z,4.60
2019-05-15T05:47:09.263Z,4.50
2019-05-15T05:49:58.191Z,4.50
2019-05-15T05:58:38.678Z,4.50
2019-05-15T06:24:51.108Z,4.50
2019-05-15T06:36:34.505Z,4.60
2019-05-15T06:42:23.032Z,4.60
2019-05-15T06:45:04.388Z,4.60
2019-05-15T06:47:45.129Z,4.70
2019-05-15T06:53:24.306Z,4.70
2019-05-15T06:56:07.749Z,4.80
2019-05-15T06:58:48.726Z,4.70
2019-05-15T07:01:29.887Z,4.80
2019-05-15T07:04:10.845Z,4.80
2019-05-15T07:06:51.577Z,4.80
2019-05-15T07:09:32.316Z,4.90
2019-05-15T07:12:13.427Z,4.90
2019-05-15T07:14:54.006Z,4.90
2019-05-15T07:17:34.637Z,4.90
2019-05-15T07:20:15.122Z,4.90
2019-05-15T07:22:58.452Z,4.90
2019-05-15T07:25:39.242Z,5.00
2019-05-15T07:28:20.401Z,5.00
2019-05-15T07:31:00.206Z,5.00
2019-05-15T07:33:49.320Z,5.10
2019-05-15T07:48:15.626Z,5.30
2019-05-15T08:02:40.233Z,5.50
2019-05-15T08:11:21.952Z,5.70
2019-05-15T08:23:23.911Z,5.80
2019-05-15T08:35:01.438Z,5.90
2019-05-15T08:37:42.037Z,5.90
2019-05-15T08:40:22.666Z,6.00
2019-05-15T08:43:03.555Z,6.00
2019-05-15T08:45:44.923Z,6.00
2019-05-15T08:48:27.751Z,6.10
2019-05-15T08:51:08.961Z,6.10
2019-05-15T08:53:50.069Z,6.10
2019-05-15T08:56:31.213Z,6.20
2019-05-15T08:59:12.253Z,6.20
2019-05-15T09:01:53.249Z,6.20
2019-05-15T09:04:35.179Z,6.20
2019-05-15T09:07:18.059Z,6.20
2019-05-15T09:09:59.121Z,6.30
2019-05-15T09:12:40.386Z,6.30
2019-05-15T09:15:20.222Z,6.30
2019-05-15T09:32:39.577Z,6.20
2019-05-15T09:38:39.332Z,6.20
2019-05-15T09:47:18.648Z,6.10
2019-05-15T10:18:59.163Z,6.10
2019-05-15T10:21:40.261Z,6.20
2019-05-15T10:24:20.941Z,6.10
2019-05-15T10:27:01.758Z,6.20
2019-05-15T10:29:43.309Z,6.20
2019-05-15T10:32:24.050Z,6.20
2019-05-15T10:35:04.876Z,6.20
2019-05-15T10:37:48.780Z,6.20
2019-05-15T10:40:29.571Z,6.20
2019-05-15T10:43:10.983Z,6.20
2019-05-15T10:45:54.704Z,6.30
2019-05-15T10:48:35.314Z,6.30
2019-05-15T10:51:19.160Z,6.30
2019-05-15T10:53:59.766Z,6.30
2019-05-15T10:56:40.745Z,6.20
2019-05-15T10:59:21.915Z,6.20
2019-05-15T11:02:02.995Z,6.20
2019-05-15T11:04:44.112Z,6.30
2019-05-15T11:07:25.344Z,6.30
2019-05-15T11:10:08.448Z,6.30
2019-05-15T11:12:49.165Z,6.40
2019-05-15T11:15:30.481Z,6.40
2019-05-15T11:18:11.916Z,6.50
2019-05-15T11:24:05.303Z,6.60
2019-05-15T11:26:49.660Z,6.50
2019-05-15T11:29:29.074Z,6.50
2019-05-15T11:32:10.041Z,6.50
2019-05-15T11:34:50.575Z,6.50
2019-05-15T11:37:31.633Z,6.30
2019-05-15T11:40:12.534Z,6.30
2019-05-15T11:42:53.677Z,6.40
2019-05-15T11:45:34.518Z,6.30
2019-05-15T11:48:16.024Z,6.30
2019-05-15T11:50:57.004Z,6.30
2019-05-15T11:56:39.163Z,6.30
2019-05-15T11:59:19.751Z,6.30
2019-05-15T12:02:00.933Z,6.30
2019-05-15T12:04:42.267Z,6.30
2019-05-15T12:07:23.751Z,6.30
2019-05-15T12:10:04.363Z,6.30
2019-05-15T12:12:45.107Z,6.30
2019-05-15T12:15:27.881Z,6.30
2019-05-15T12:18:08.991Z,6.30
2019-05-15T12:20:49.812Z,6.40
2019-05-15T12:23:30.392Z,6.40
2019-05-15T12:26:11.643Z,6.40
2019-05-15T12:28:53.047Z,6.40
2019-05-15T12:31:34.386Z,6.40
2019-05-15T12:34:18.136Z,6.50
2019-05-15T12:36:58.591Z,6.60
2019-05-15T12:39:40.950Z,6.60
2019-05-15T13:01:50.298Z,6.80
2019-05-15T13:04:31.732Z,6.80
2019-05-15T13:07:16.699Z,6.80
2019-05-15T13:09:57.849Z,6.80
2019-05-15T13:12:55.262Z,6.90
2019-05-15T13:15:21.390Z,6.90
2019-05-15T13:18:02.859Z,7.00
2019-05-15T13:20:43.954Z,7.00
2019-05-15T13:23:24.759Z,6.90
2019-05-15T13:26:12.719Z,6.90
2019-05-15T13:28:48.982Z,6.90
2019-05-15T13:31:30.168Z,6.80
2019-05-15T13:34:11.612Z,6.80
2019-05-15T13:36:52.875Z,6.70
2019-05-15T13:39:34.254Z,6.60
2019-05-15T13:42:18.001Z,6.60
2019-05-15T13:44:58.740Z,6.70
2019-05-15T13:47:40.193Z,6.80
2019-05-15T13:50:20.910Z,6.90
2019-05-15T13:53:01.697Z,6.90
2019-05-15T13:55:43.183Z,6.90
2019-05-15T13:58:24.540Z,7.00
2019-05-15T14:01:05.345Z,7.10
2019-05-15T14:03:48.245Z,7.10
2019-05-15T14:06:29.190Z,7.00
2019-05-15T14:09:10.024Z,7.00
2019-05-15T14:11:50.961Z,7.10
2019-05-15T14:14:32.523Z,7.10
2019-05-15T14:17:13.231Z,7.20
2019-05-15T14:19:54.802Z,7.20
2019-05-15T14:22:35.457Z,7.20
2019-05-15T14:25:18.171Z,7.30
2019-05-15T14:27:59.537Z,7.30
2019-05-15T14:30:40.875Z,7.40
2019-05-15T14:33:22.348Z,7.50
2019-05-15T14:36:03.937Z,7.40
2019-05-15T14:38:44.559Z,7.40
2019-05-15T14:41:25.189Z,7.40
2019-05-15T14:44:16.464Z,7.40
2019-05-15T14:46:50.821Z,7.50
2019-05-15T14:49:34.530Z,7.50
2019-05-15T14:52:13.613Z,7.50
2019-05-15T14:54:54.275Z,7.50
2019-05-15T14:57:34.896Z,7.50
2019-05-15T15:00:19.416Z,7.60
2019-05-15T15:02:58.878Z,7.60
2019-05-15T15:05:40.530Z,7.50
2019-05-15T15:08:25.241Z,7.60
2019-05-15T15:11:05.222Z,7.60
2019-05-15T15:13:46.368Z,7.60
2019-05-15T15:16:29.154Z,7.60
2019-05-15T15:25:09.212Z,8.10
2019-05-15T15:27:49.233Z,7.80
2019-05-15T15:30:30.403Z,7.70
2019-05-15T15:33:11.710Z,7.60
2019-05-15T15:35:52.212Z,7.50
2019-05-15T15:38:40.792Z,7.50
2019-05-15T15:41:16.028Z,7.60
2019-05-15T15:43:58.612Z,7.60
2019-05-15T15:46:39.790Z,7.50
2019-05-15T15:49:21.496Z,7.50
2019-05-15T15:52:03.160Z,7.60
2019-05-15T15:54:44.356Z,7.60
2019-05-15T15:57:25.129Z,7.60
2019-05-15T16:00:08.760Z,7.60
2019-05-15T16:02:49.411Z,7.60
2019-05-15T16:05:30.360Z,7.60
2019-05-15T16:08:09.880Z,7.60
2019-05-15T16:13:46.467Z,7.50
2019-05-15T16:16:28.487Z,7.50
2019-05-15T16:19:09.436Z,7.60
2019-05-15T16:21:50.142Z,7.60
2019-05-15T16:24:31.712Z,7.60
2019-05-15T16:27:12.894Z,7.60
2019-05-15T16:29:53.530Z,7.60
2019-05-15T16:32:34.547Z,7.60
2019-05-15T16:38:28.820Z,7.50
2019-05-15T16:41:09.516Z,7.50
2019-05-15T16:43:50.830Z,7.50
2019-05-15T16:46:32.427Z,7.50
2019-05-15T16:49:14.143Z,7.50
2019-05-15T16:51:55.456Z,7.50
2019-05-15T16:54:38.287Z,7.50
2019-05-15T16:57:18.610Z,7.50
2019-05-15T16:59:59.174Z,7.40
2019-05-15T17:02:40.368Z,7.40
2019-05-15T17:05:21.259Z,7.50
2019-05-15T17:08:02.267Z,7.40
2019-05-15T17:10:43.283Z,7.50
2019-05-15T17:13:24.400Z,7.60
2019-05-15T17:16:07.644Z,7.60
2019-05-15T17:18:48.823Z,7.60
2019-05-15T17:21:29.718Z,7.60
2019-05-15T17:24:10.297Z,7.50
2019-05-15T17:26:51.294Z,7.50
2019-05-15T17:29:32.811Z,7.50
2019-05-15T17:32:14.017Z,7.40
2019-05-15T17:34:55.339Z,7.40
2019-05-15T17:37:38.016Z,7.30
2019-05-15T17:40:19.411Z,7.30
2019-05-15T17:43:02.636Z,7.30
2019-05-15T17:45:43.809Z,7.30
2019-05-15T17:48:25.348Z,7.30
2019-05-15T17:51:06.251Z,7.30
2019-05-15T17:53:48.989Z,7.30
2019-05-15T17:56:29.823Z,7.30
2019-05-15T17:59:10.549Z,7.30
2019-05-15T18:01:51.966Z,7.30
2019-05-15T18:04:32.710Z,7.30
2019-05-15T18:07:13.610Z,7.30
2019-05-15T18:09:54.848Z,7.30
2019-05-15T18:12:38.531Z,7.20
2019-05-15T18:15:19.515Z,7.20
2019-05-15T18:18:00.969Z,7.10
2019-05-15T18:20:41.908Z,7.10
2019-05-15T18:23:23.688Z,7.10
2019-05-15T18:26:05.170Z,7.10
2019-05-15T18:28:45.888Z,7.00
2019-05-15T18:31:28.657Z,7.00
2019-05-15T18:34:09.956Z,7.00
2019-05-15T18:36:51.085Z,7.00
2019-05-15T18:39:32.747Z,6.90
2019-05-15T18:42:14.172Z,6.90
2019-05-15T18:44:58.010Z,6.90
2019-05-15T18:47:38.972Z,6.80
2019-05-15T18:50:20.331Z,6.80
2019-05-15T18:53:01.697Z,6.80
2019-05-15T18:55:42.604Z,6.70
2019-05-15T18:58:24.047Z,6.70
2019-05-15T19:01:05.667Z,6.70
2019-05-15T19:03:47.161Z,6.70
2019-05-15T19:06:29.219Z,6.70
2019-05-15T19:09:10.919Z,6.60
2019-05-15T19:11:52.192Z,6.60
2019-05-15T19:14:32.733Z,6.60
2019-05-15T19:17:13.814Z,6.60
2019-05-15T19:19:55.212Z,6.60
2019-05-15T19:22:40.647Z,6.60
2019-05-15T19:25:19.281Z,6.60
2019-05-15T19:27:58.779Z,6.50
2019-05-15T19:36:34.879Z,6.50
2019-05-15T20:02:48.583Z,6.60
2019-05-15T20:14:33.507Z,6.60
2019-05-15T20:17:23.561Z,6.70
2019-05-15T20:23:00.214Z,6.70
2019-05-15T20:25:40.844Z,6.60
2019-05-15T20:28:21.434Z,6.50
2019-05-15T20:31:02.109Z,6.50
2019-05-15T20:33:43.064Z,6.50
2019-05-15T20:36:24.142Z,6.50
2019-05-15T20:39:05.099Z,6.50
2019-05-15T20:41:48.609Z,6.50
2019-05-15T20:44:28.728Z,6.50
2019-05-15T20:47:09.530Z,6.50
2019-05-15T20:49:50.345Z,6.50
2019-05-15T20:52:31.644Z,6.40
2019-05-15T20:55:12.739Z,6.30
2019-05-15T20:57:53.887Z,6.30
2019-05-15T21:00:34.906Z,6.30
2019-05-15T21:03:17.795Z,6.20
2019-05-15T21:06:00.861Z,6.30
2019-05-15T21:08:41.601Z,6.20
2019-05-15T21:11:22.616Z,6.20
2019-05-15T21:14:04.131Z,6.30
2019-05-15T21:16:45.578Z,6.30
2019-05-15T21:19:27.932Z,6.30
2019-05-15T21:22:11.016Z,6.30
2019-05-15T21:24:51.639Z,6.30
2019-05-15T21:27:33.547Z,6.30
2019-05-15T21:30:15.545Z,6.30
2019-05-15T21:32:58.252Z,6.30
2019-05-15T21:35:39.656Z,6.40
2019-05-15T21:38:21.330Z,6.30
2019-05-15T21:41:02.099Z,6.30
2019-05-15T21:43:43.479Z,6.30
2019-05-15T21:46:24.345Z,6.30
2019-05-15T21:49:05.259Z,6.30
2019-05-15T21:51:47.890Z,6.40
2019-05-15T21:54:29.485Z,6.30
2019-05-15T21:57:29.192Z,6.30
2019-05-15T21:59:53.503Z,6.30
2019-05-15T22:02:34.723Z,6.30
2019-05-15T22:05:15.891Z,6.30
2019-05-15T22:07:58.687Z,6.30
2019-05-15T22:10:39.590Z,6.30
2019-05-15T22:13:20.888Z,6.30
2019-05-15T22:16:01.781Z,6.30
2019-05-15T22:18:43.078Z,6.20
2019-05-15T22:21:24.140Z,6.30
2019-05-15T22:24:05.640Z,6.30
2019-05-15T22:26:35.208Z,6.30
2019-05-15T22:32:38.699Z,6.20
2019-05-15T22:41:29.238Z,6.20
2019-05-15T22:50:28.050Z,6.20
2019-05-15T22:53:38.258Z,6.20
2019-05-15T23:05:29.260Z,6.10
2019-05-15T23:29:09.322Z,6.10
2019-05-15T23:31:50.159Z,6.00
2019-05-15T23:34:30.981Z,6.10
2019-05-15T23:37:12.872Z,6.10
2019-05-15T23:39:54.287Z,6.10
2019-05-15T23:42:35.433Z,6.00
2019-05-15T23:45:17.899Z,6.10
2019-05-15T23:47:59.395Z,6.10
2019-05-15T23:50:40.343Z,6.10
2019-05-15T23:59:19.586Z,6.30
